sensor_id;sensor_type;location;lat;lon;timestamp;noise_LAeq;noise_LA_min;noise_LA_max;noise_LA01;noise_LA95
72736;Laerm;60856;53.238;10.448;2022-08-01T00:02:00;47.62;39.96;58.62;;
72736;Laerm;60856;53.238;10.448;2022-08-01T00:04:26;48.50;38.89;60.71;;
72736;Laerm;60856;53.238;10.448;2022-08-01T00:06:51;45.20;39.11;54.80;;
72736;Laerm;60856;53.238;10.448;2022-08-01T00:09:16;44.03;42.24;47.59;;
72736;Laerm;60856;53.238;10.448;2022-08-01T00:11:41;44.74;39.66;55.59;;
72736;Laerm;60856;53.238;10.448;2022-08-01T00:14:07;44.55;41.51;50.43;;
72736;Laerm;60856;53.238;10.448;2022-08-01T00:16:34;46.14;39.26;57.61;;
72736;Laerm;60856;53.238;10.448;2022-08-01T00:18:59;47.61;39.03;57.43;;
72736;Laerm;60856;53.238;10.448;2022-08-01T00:21:24;49.26;38.80;59.19;;
72736;Laerm;60856;53.238;10.448;2022-08-01T00:23:50;49.93;39.38;57.45;;
72736;Laerm;60856;53.238;10.448;2022-08-01T00:26:15;44.55;42.38;50.02;;
72736;Laerm;60856;53.238;10.448;2022-08-01T00:28:40;44.55;42.68;47.05;;
72736;Laerm;60856;53.238;10.448;2022-08-01T00:31:06;45.09;42.45;47.76;;
72736;Laerm;60856;53.238;10.448;2022-08-01T00:33:31;44.83;42.15;47.54;;
72736;Laerm;60856;53.238;10.448;2022-08-01T00:38:41;44.32;42.55;47.06;;
72736;Laerm;60856;53.238;10.448;2022-08-01T00:41:06;44.64;42.92;47.13;;
72736;Laerm;60856;53.238;10.448;2022-08-01T00:43:32;44.49;42.99;47.56;;
72736;Laerm;60856;53.238;10.448;2022-08-01T00:45:57;44.23;42.75;48.47;;
72736;Laerm;60856;53.238;10.448;2022-08-01T00:48:22;43.98;42.32;46.43;;
72736;Laerm;60856;53.238;10.448;2022-08-01T00:50:47;43.97;42.63;46.81;;
72736;Laerm;60856;53.238;10.448;2022-08-01T00:53:13;45.66;39.58;56.73;;
72736;Laerm;60856;53.238;10.448;2022-08-01T00:55:39;49.33;38.70;56.86;;
72736;Laerm;60856;53.238;10.448;2022-08-01T00:58:04;48.75;41.71;52.94;;
72736;Laerm;60856;53.238;10.448;2022-08-01T01:00:30;50.40;49.22;51.67;;
72736;Laerm;60856;53.238;10.448;2022-08-01T01:02:55;49.08;37.95;56.24;;
72736;Laerm;60856;53.238;10.448;2022-08-01T01:05:20;50.86;49.74;52.31;;
72736;Laerm;60856;53.238;10.448;2022-08-01T01:10:35;49.12;42.18;53.08;;
72736;Laerm;60856;53.238;10.448;2022-08-01T01:13:10;48.80;42.05;51.70;;
72736;Laerm;60856;53.238;10.448;2022-08-01T01:15:47;48.71;40.67;50.44;;
72736;Laerm;60856;53.238;10.448;2022-08-01T01:18:17;49.64;38.04;58.38;;
72736;Laerm;60856;53.238;10.448;2022-08-01T01:20:46;50.41;42.86;52.94;;
72736;Laerm;60856;53.238;10.448;2022-08-01T01:28:29;50.78;49.71;52.34;;
72736;Laerm;60856;53.238;10.448;2022-08-01T01:30:58;46.11;37.60;55.97;;
72736;Laerm;60856;53.238;10.448;2022-08-01T01:33:25;46.96;37.60;57.17;;
72736;Laerm;60856;53.238;10.448;2022-08-01T01:35:59;51.97;40.29;60.39;;
72736;Laerm;60856;53.238;10.448;2022-08-01T01:38:33;51.48;44.76;53.70;;
72736;Laerm;60856;53.238;10.448;2022-08-01T01:40:59;47.63;39.16;59.95;;
72736;Laerm;60856;53.238;10.448;2022-08-01T01:43:25;51.35;44.28;53.23;;
72736;Laerm;60856;53.238;10.448;2022-08-01T01:45:51;50.44;44.33;53.83;;
72736;Laerm;60856;53.238;10.448;2022-08-01T01:48:18;50.75;44.66;54.15;;
72736;Laerm;60856;53.238;10.448;2022-08-01T01:50:44;48.64;38.48;55.37;;
72736;Laerm;60856;53.238;10.448;2022-08-01T01:53:10;48.53;39.27;55.82;;
72736;Laerm;60856;53.238;10.448;2022-08-01T01:55:38;51.63;39.48;57.01;;
72736;Laerm;60856;53.238;10.448;2022-08-01T01:58:04;50.56;38.96;54.95;;
72736;Laerm;60856;53.238;10.448;2022-08-01T02:00:31;50.10;43.72;52.86;;
72736;Laerm;60856;53.238;10.448;2022-08-01T02:02:57;47.46;45.77;49.31;;
72736;Laerm;60856;53.238;10.448;2022-08-01T02:05:23;47.98;46.71;49.77;;
72736;Laerm;60856;53.238;10.448;2022-08-01T02:07:49;47.11;41.06;50.07;;
72736;Laerm;60856;53.238;10.448;2022-08-01T02:10:15;47.45;43.83;50.14;;
72736;Laerm;60856;53.238;10.448;2022-08-01T02:12:43;48.17;47.05;50.09;;
72736;Laerm;60856;53.238;10.448;2022-08-01T02:15:10;46.27;37.99;52.70;;
72736;Laerm;60856;53.238;10.448;2022-08-01T02:17:37;44.78;38.14;58.68;;
72736;Laerm;60856;53.238;10.448;2022-08-01T02:20:04;47.45;38.60;59.40;;
72736;Laerm;60856;53.238;10.448;2022-08-01T02:22:49;45.61;37.81;56.30;;
72736;Laerm;60856;53.238;10.448;2022-08-01T02:25:26;44.37;39.13;51.54;;
72736;Laerm;60856;53.238;10.448;2022-08-01T02:28:36;43.01;40.10;47.33;;
72736;Laerm;60856;53.238;10.448;2022-08-01T02:30:43;43.35;40.60;46.68;;
72736;Laerm;60856;53.238;10.448;2022-08-01T02:35:35;44.25;37.69;53.50;;
72736;Laerm;60856;53.238;10.448;2022-08-01T02:38:03;40.34;37.00;55.98;;
72736;Laerm;60856;53.238;10.448;2022-08-01T02:40:32;38.46;36.91;39.98;;
72736;Laerm;60856;53.238;10.448;2022-08-01T02:42:58;38.54;36.95;40.10;;
72736;Laerm;60856;53.238;10.448;2022-08-01T02:45:24;38.56;36.82;40.24;;
72736;Laerm;60856;53.238;10.448;2022-08-01T02:47:50;38.43;36.87;39.97;;
72736;Laerm;60856;53.238;10.448;2022-08-01T02:50:16;38.47;36.71;40.39;;
72736;Laerm;60856;53.238;10.448;2022-08-01T02:52:43;38.53;36.82;49.09;;
72736;Laerm;60856;53.238;10.448;2022-08-01T02:55:11;38.59;37.09;39.95;;
72736;Laerm;60856;53.238;10.448;2022-08-01T02:57:37;39.16;36.93;46.89;;
72736;Laerm;60856;53.238;10.448;2022-08-01T03:00:04;38.36;36.50;45.98;;
72736;Laerm;60856;53.238;10.448;2022-08-01T03:02:30;38.84;36.95;55.09;;
72736;Laerm;60856;53.238;10.448;2022-08-01T03:04:56;38.58;36.51;56.02;;
72736;Laerm;60856;53.238;10.448;2022-08-01T03:07:22;39.19;36.21;62.05;;
72736;Laerm;60856;53.238;10.448;2022-08-01T03:09:49;42.50;37.04;59.53;;
72736;Laerm;60856;53.238;10.448;2022-08-01T03:12:19;46.12;37.77;54.69;;
72736;Laerm;60856;53.238;10.448;2022-08-01T03:14:45;40.76;37.93;47.65;;
72736;Laerm;60856;53.238;10.448;2022-08-01T03:17:11;38.84;36.65;45.25;;
72736;Laerm;60856;53.238;10.448;2022-08-01T03:19:38;44.15;36.87;55.83;;
72736;Laerm;60856;53.238;10.448;2022-08-01T03:22:05;47.47;39.78;52.68;;
72736;Laerm;60856;53.238;10.448;2022-08-01T03:24:31;46.48;39.31;52.15;;
72736;Laerm;60856;53.238;10.448;2022-08-01T03:26:58;44.32;39.19;51.67;;
72736;Laerm;60856;53.238;10.448;2022-08-01T03:29:24;43.66;41.76;46.50;;
72736;Laerm;60856;53.238;10.448;2022-08-01T03:31:50;45.19;37.83;58.16;;
72736;Laerm;60856;53.238;10.448;2022-08-01T03:34:16;38.47;36.99;39.96;;
72736;Laerm;60856;53.238;10.448;2022-08-01T03:37:05;38.43;36.93;39.78;;
72736;Laerm;60856;53.238;10.448;2022-08-01T03:39:30;38.52;36.68;49.50;;
72736;Laerm;60856;53.238;10.448;2022-08-01T03:42:04;38.78;36.49;47.38;;
72736;Laerm;60856;53.238;10.448;2022-08-01T03:44:31;38.58;36.55;43.41;;
72736;Laerm;60856;53.238;10.448;2022-08-01T03:46:59;38.28;36.52;40.79;;
72736;Laerm;60856;53.238;10.448;2022-08-01T03:49:26;38.16;36.35;39.61;;
72736;Laerm;60856;53.238;10.448;2022-08-01T03:51:54;38.08;36.36;39.89;;
72736;Laerm;60856;53.238;10.448;2022-08-01T03:54:21;38.15;36.42;57.24;;
72736;Laerm;60856;53.238;10.448;2022-08-01T03:56:48;38.12;36.53;39.73;;
72736;Laerm;60856;53.238;10.448;2022-08-01T03:59:15;38.23;36.59;39.89;;
72736;Laerm;60856;53.238;10.448;2022-08-01T04:01:41;38.11;36.44;39.97;;
72736;Laerm;60856;53.238;10.448;2022-08-01T04:04:08;38.15;36.46;40.71;;
72736;Laerm;60856;53.238;10.448;2022-08-01T04:06:33;38.20;36.28;39.80;;
72736;Laerm;60856;53.238;10.448;2022-08-01T04:09:02;38.16;36.52;40.14;;
72736;Laerm;60856;53.238;10.448;2022-08-01T04:11:27;38.13;36.25;39.99;;
72736;Laerm;60856;53.238;10.448;2022-08-01T04:13:53;38.08;36.18;40.44;;
72736;Laerm;60856;53.238;10.448;2022-08-01T04:16:19;38.10;36.48;41.85;;
72736;Laerm;60856;53.238;10.448;2022-08-01T04:18:44;37.94;36.39;39.66;;
72736;Laerm;60856;53.238;10.448;2022-08-01T04:21:09;37.94;35.93;39.48;;
72736;Laerm;60856;53.238;10.448;2022-08-01T04:23:35;37.97;36.21;41.84;;
72736;Laerm;60856;53.238;10.448;2022-08-01T04:26:00;38.54;36.31;56.70;;
72736;Laerm;60856;53.238;10.448;2022-08-01T04:28:29;38.28;36.13;57.42;;
72736;Laerm;60856;53.238;10.448;2022-08-01T04:30:55;38.17;36.41;41.79;;
72736;Laerm;60856;53.238;10.448;2022-08-01T04:33:20;38.41;36.53;50.42;;
72736;Laerm;60856;53.238;10.448;2022-08-01T04:35:47;38.19;36.08;40.60;;
72736;Laerm;60856;53.238;10.448;2022-08-01T04:38:15;38.14;36.46;39.70;;
72736;Laerm;60856;53.238;10.448;2022-08-01T04:40:42;38.20;36.39;45.21;;
72736;Laerm;60856;53.238;10.448;2022-08-01T04:43:10;38.19;36.44;40.03;;
72736;Laerm;60856;53.238;10.448;2022-08-01T04:45:35;38.23;36.63;41.30;;
72736;Laerm;60856;53.238;10.448;2022-08-01T04:48:01;39.99;36.68;62.44;;
72736;Laerm;60856;53.238;10.448;2022-08-01T04:50:26;38.51;36.56;41.60;;
72736;Laerm;60856;53.238;10.448;2022-08-01T04:52:52;38.17;36.26;40.12;;
72736;Laerm;60856;53.238;10.448;2022-08-01T04:55:17;38.14;36.29;41.18;;
72736;Laerm;60856;53.238;10.448;2022-08-01T04:57:43;38.04;36.28;40.94;;
72736;Laerm;60856;53.238;10.448;2022-08-01T05:00:09;38.27;36.41;43.74;;
72736;Laerm;60856;53.238;10.448;2022-08-01T05:02:35;38.09;36.40;40.74;;
72736;Laerm;60856;53.238;10.448;2022-08-01T05:05:01;39.16;35.74;49.03;;
72736;Laerm;60856;53.238;10.448;2022-08-01T05:07:26;38.29;36.05;44.76;;
72736;Laerm;60856;53.238;10.448;2022-08-01T05:09:51;38.00;36.09;40.93;;
72736;Laerm;60856;53.238;10.448;2022-08-01T05:12:17;37.86;36.02;43.92;;
72736;Laerm;60856;53.238;10.448;2022-08-01T05:17:19;38.21;35.95;48.39;;
72736;Laerm;60856;53.238;10.448;2022-08-01T05:19:44;38.46;35.86;47.77;;
72736;Laerm;60856;53.238;10.448;2022-08-01T05:22:09;37.45;35.71;47.26;;
72736;Laerm;60856;53.238;10.448;2022-08-01T05:24:36;39.61;35.36;54.58;;
72736;Laerm;60856;53.238;10.448;2022-08-01T05:27:01;37.61;35.69;54.59;;
72736;Laerm;60856;53.238;10.448;2022-08-01T05:29:27;37.13;35.32;46.40;;
72736;Laerm;60856;53.238;10.448;2022-08-01T05:31:52;37.28;35.39;44.57;;
72736;Laerm;60856;53.238;10.448;2022-08-01T05:34:18;37.22;35.36;44.71;;
72736;Laerm;60856;53.238;10.448;2022-08-01T05:36:43;37.51;35.40;47.83;;
72736;Laerm;60856;53.238;10.448;2022-08-01T05:39:09;37.09;35.45;39.00;;
72736;Laerm;60856;53.238;10.448;2022-08-01T05:41:35;40.14;35.52;50.33;;
72736;Laerm;60856;53.238;10.448;2022-08-01T05:44:01;37.07;35.27;42.72;;
72736;Laerm;60856;53.238;10.448;2022-08-01T05:46:26;37.44;35.35;44.83;;
72736;Laerm;60856;53.238;10.448;2022-08-01T05:48:51;38.14;35.37;59.17;;
72736;Laerm;60856;53.238;10.448;2022-08-01T05:51:17;38.02;35.00;46.40;;
72736;Laerm;60856;53.238;10.448;2022-08-01T05:53:42;40.23;34.99;54.00;;
72736;Laerm;60856;53.238;10.448;2022-08-01T05:56:07;36.88;35.24;48.76;;
72736;Laerm;60856;53.238;10.448;2022-08-01T05:58:32;37.72;34.88;46.43;;
72736;Laerm;60856;53.238;10.448;2022-08-01T06:00:58;37.06;35.22;46.54;;
72736;Laerm;60856;53.238;10.448;2022-08-01T06:03:23;36.89;35.12;41.67;;
72736;Laerm;60856;53.238;10.448;2022-08-01T06:05:48;36.65;34.90;40.33;;
72736;Laerm;60856;53.238;10.448;2022-08-01T06:08:13;37.95;34.52;52.50;;
72736;Laerm;60856;53.238;10.448;2022-08-01T06:10:39;36.32;34.33;40.61;;
72736;Laerm;60856;53.238;10.448;2022-08-01T06:13:04;37.73;34.66;46.18;;
72736;Laerm;60856;53.238;10.448;2022-08-01T06:15:30;38.12;34.62;48.33;;
72736;Laerm;60856;53.238;10.448;2022-08-01T06:17:55;36.36;34.24;42.01;;
72736;Laerm;60856;53.238;10.448;2022-08-01T06:20:20;37.54;34.84;57.46;;
72736;Laerm;60856;53.238;10.448;2022-08-01T06:22:46;37.13;34.86;52.90;;
72736;Laerm;60856;53.238;10.448;2022-08-01T06:25:11;36.66;34.96;49.12;;
72736;Laerm;60856;53.238;10.448;2022-08-01T06:27:36;36.61;34.86;41.36;;
72736;Laerm;60856;53.238;10.448;2022-08-01T06:30:02;36.92;35.12;47.23;;
72736;Laerm;60856;53.238;10.448;2022-08-01T06:32:28;36.76;34.94;42.65;;
72736;Laerm;60856;53.238;10.448;2022-08-01T06:34:54;36.56;34.68;45.17;;
72736;Laerm;60856;53.238;10.448;2022-08-01T06:37:19;36.82;34.82;44.84;;
72736;Laerm;60856;53.238;10.448;2022-08-01T06:39:45;37.03;34.89;47.24;;
72736;Laerm;60856;53.238;10.448;2022-08-01T06:42:10;38.46;35.13;51.05;;
72736;Laerm;60856;53.238;10.448;2022-08-01T06:44:35;37.01;34.98;42.43;;
72736;Laerm;60856;53.238;10.448;2022-08-01T06:47:01;37.08;35.30;45.85;;
72736;Laerm;60856;53.238;10.448;2022-08-01T06:49:26;38.44;35.26;55.93;;
72736;Laerm;60856;53.238;10.448;2022-08-01T06:51:51;37.01;35.16;42.98;;
72736;Laerm;60856;53.238;10.448;2022-08-01T06:54:17;37.06;35.24;40.63;;
72736;Laerm;60856;53.238;10.448;2022-08-01T06:56:42;38.09;35.13;47.47;;
72736;Laerm;60856;53.238;10.448;2022-08-01T06:59:08;37.41;34.91;43.65;;
72736;Laerm;60856;53.238;10.448;2022-08-01T07:01:33;36.87;35.02;49.14;;
72736;Laerm;60856;53.238;10.448;2022-08-01T07:03:58;38.49;35.10;49.66;;
72736;Laerm;60856;53.238;10.448;2022-08-01T07:06:24;37.84;34.81;46.31;;
72736;Laerm;60856;53.238;10.448;2022-08-01T07:08:50;36.89;35.04;40.90;;
72736;Laerm;60856;53.238;10.448;2022-08-01T07:11:15;40.43;34.49;54.78;;
72736;Laerm;60856;53.238;10.448;2022-08-01T07:13:41;47.13;35.04;57.41;;
72736;Laerm;60856;53.238;10.448;2022-08-01T07:16:06;44.02;35.25;58.40;;
72736;Laerm;60856;53.238;10.448;2022-08-01T07:18:31;48.36;35.44;67.23;;
72736;Laerm;60856;53.238;10.448;2022-08-01T07:20:57;44.81;35.20;57.69;;
72736;Laerm;60856;53.238;10.448;2022-08-01T07:23:22;47.28;35.35;56.17;;
72736;Laerm;60856;53.238;10.448;2022-08-01T07:25:47;44.20;34.84;63.61;;
72736;Laerm;60856;53.238;10.448;2022-08-01T07:28:14;47.08;35.41;57.56;;
72736;Laerm;60856;53.238;10.448;2022-08-01T07:30:39;39.05;34.86;52.00;;
72736;Laerm;60856;53.238;10.448;2022-08-01T07:33:07;46.61;35.09;55.65;;
72736;Laerm;60856;53.238;10.448;2022-08-01T07:35:32;43.23;34.84;56.49;;
72736;Laerm;60856;53.238;10.448;2022-08-01T07:37:57;38.09;34.66;48.48;;
72736;Laerm;60856;53.238;10.448;2022-08-01T07:40:22;37.51;34.70;48.76;;
72736;Laerm;60856;53.238;10.448;2022-08-01T07:42:48;38.25;34.49;50.94;;
72736;Laerm;60856;53.238;10.448;2022-08-01T07:45:13;39.45;34.59;50.90;;
72736;Laerm;60856;53.238;10.448;2022-08-01T07:47:39;39.75;34.59;52.20;;
72736;Laerm;60856;53.238;10.448;2022-08-01T07:50:04;37.84;34.62;54.39;;
72736;Laerm;60856;53.238;10.448;2022-08-01T07:52:30;41.56;34.44;53.63;;
72736;Laerm;60856;53.238;10.448;2022-08-01T07:54:56;37.15;34.81;48.38;;
72736;Laerm;60856;53.238;10.448;2022-08-01T07:57:22;38.14;34.37;48.33;;
72736;Laerm;60856;53.238;10.448;2022-08-01T07:59:47;39.20;34.77;52.64;;
72736;Laerm;60856;53.238;10.448;2022-08-01T08:02:12;38.18;35.10;49.72;;
72736;Laerm;60856;53.238;10.448;2022-08-01T08:04:37;38.66;34.77;48.84;;
72736;Laerm;60856;53.238;10.448;2022-08-01T08:07:03;38.57;34.28;55.11;;
72736;Laerm;60856;53.238;10.448;2022-08-01T08:09:28;39.23;34.18;65.74;;
72736;Laerm;60856;53.238;10.448;2022-08-01T08:11:53;36.70;33.45;52.50;;
72736;Laerm;60856;53.238;10.448;2022-08-01T08:14:18;37.41;33.80;54.38;;
72736;Laerm;60856;53.238;10.448;2022-08-01T08:16:44;36.84;34.08;53.59;;
72736;Laerm;60856;53.238;10.448;2022-08-01T08:19:09;36.78;34.11;51.39;;
72736;Laerm;60856;53.238;10.448;2022-08-01T08:21:35;38.52;33.40;53.15;;
72736;Laerm;60856;53.238;10.448;2022-08-01T08:24:01;39.05;33.51;60.90;;
72736;Laerm;60856;53.238;10.448;2022-08-01T08:26:44;36.66;34.16;53.43;;
72736;Laerm;60856;53.238;10.448;2022-08-01T08:29:09;37.10;33.75;58.09;;
72736;Laerm;60856;53.238;10.448;2022-08-01T08:31:35;36.66;33.79;47.62;;
72736;Laerm;60856;53.238;10.448;2022-08-01T08:34:00;36.79;33.84;58.41;;
72736;Laerm;60856;53.238;10.448;2022-08-01T08:36:25;37.22;33.87;59.35;;
72736;Laerm;60856;53.238;10.448;2022-08-01T08:38:50;36.66;34.14;44.64;;
72736;Laerm;60856;53.238;10.448;2022-08-01T08:41:16;37.17;33.79;46.05;;
72736;Laerm;60856;53.238;10.448;2022-08-01T08:43:41;35.28;33.62;45.77;;
72736;Laerm;60856;53.238;10.448;2022-08-01T08:46:07;35.38;33.53;38.67;;
72736;Laerm;60856;53.238;10.448;2022-08-01T08:48:33;36.24;33.63;47.35;;
72736;Laerm;60856;53.238;10.448;2022-08-01T08:50:58;38.09;33.72;49.74;;
72736;Laerm;60856;53.238;10.448;2022-08-01T08:53:25;35.22;33.30;42.81;;
72736;Laerm;60856;53.238;10.448;2022-08-01T08:55:51;36.06;33.32;47.72;;
72736;Laerm;60856;53.238;10.448;2022-08-01T08:58:17;37.21;33.23;49.25;;
72736;Laerm;60856;53.238;10.448;2022-08-01T09:00:42;39.15;33.16;52.29;;
72736;Laerm;60856;53.238;10.448;2022-08-01T09:03:08;41.02;33.24;52.60;;
72736;Laerm;60856;53.238;10.448;2022-08-01T09:05:33;35.36;33.30;44.25;;
72736;Laerm;60856;53.238;10.448;2022-08-01T09:07:58;35.18;33.27;38.97;;
72736;Laerm;60856;53.238;10.448;2022-08-01T09:10:24;35.84;32.78;40.79;;
72736;Laerm;60856;53.238;10.448;2022-08-01T09:15:51;36.89;33.52;50.55;;
72736;Laerm;60856;53.238;10.448;2022-08-01T09:18:25;40.24;33.58;54.45;;
72736;Laerm;60856;53.238;10.448;2022-08-01T09:23:32;37.14;33.58;49.73;;
72736;Laerm;60856;53.238;10.448;2022-08-01T09:25:57;35.85;33.44;47.91;;
72736;Laerm;60856;53.238;10.448;2022-08-01T09:28:27;35.90;33.52;51.05;;
72736;Laerm;60856;53.238;10.448;2022-08-01T09:30:52;37.47;33.03;48.93;;
72736;Laerm;60856;53.238;10.448;2022-08-01T09:33:18;35.84;33.41;49.06;;
72736;Laerm;60856;53.238;10.448;2022-08-01T09:35:43;36.43;33.05;51.67;;
72736;Laerm;60856;53.238;10.448;2022-08-01T09:38:20;35.17;32.93;45.37;;
72736;Laerm;60856;53.238;10.448;2022-08-01T09:40:47;37.98;33.00;52.60;;
72736;Laerm;60856;53.238;10.448;2022-08-01T09:43:13;37.37;32.49;50.67;;
72736;Laerm;60856;53.238;10.448;2022-08-01T09:45:38;40.89;32.64;52.40;;
72736;Laerm;60856;53.238;10.448;2022-08-01T09:48:10;39.03;33.11;52.60;;
72736;Laerm;60856;53.238;10.448;2022-08-01T09:50:40;39.02;32.80;54.14;;
72736;Laerm;60856;53.238;10.448;2022-08-01T09:53:06;38.28;32.93;51.61;;
72736;Laerm;60856;53.238;10.448;2022-08-01T09:55:32;36.45;32.37;47.45;;
72736;Laerm;60856;53.238;10.448;2022-08-01T09:57:57;38.60;32.97;48.90;;
72736;Laerm;60856;53.238;10.448;2022-08-01T10:00:25;36.52;32.70;56.72;;
72736;Laerm;60856;53.238;10.448;2022-08-01T10:02:51;38.29;33.22;52.14;;
72736;Laerm;60856;53.238;10.448;2022-08-01T10:05:16;39.62;33.51;71.11;;
72736;Laerm;60856;53.238;10.448;2022-08-01T10:07:58;38.83;33.45;54.40;;
72736;Laerm;60856;53.238;10.448;2022-08-01T10:10:23;34.88;32.75;44.09;;
72736;Laerm;60856;53.238;10.448;2022-08-01T10:12:48;37.18;33.35;48.76;;
72736;Laerm;60856;53.238;10.448;2022-08-01T10:15:16;39.93;31.92;57.14;;
72736;Laerm;60856;53.238;10.448;2022-08-01T10:17:43;39.03;32.57;56.61;;
72736;Laerm;60856;53.238;10.448;2022-08-01T10:20:11;35.48;32.35;49.32;;
72736;Laerm;60856;53.238;10.448;2022-08-01T10:22:36;35.41;31.98;55.03;;
72736;Laerm;60856;53.238;10.448;2022-08-01T10:25:04;37.04;31.91;48.10;;
72736;Laerm;60856;53.238;10.448;2022-08-01T10:27:29;34.54;31.60;45.46;;
72736;Laerm;60856;53.238;10.448;2022-08-01T10:29:58;34.99;31.72;45.45;;
72736;Laerm;60856;53.238;10.448;2022-08-01T10:32:28;34.05;31.61;47.28;;
72736;Laerm;60856;53.238;10.448;2022-08-01T10:34:54;33.98;31.72;46.39;;
72736;Laerm;60856;53.238;10.448;2022-08-01T10:37:19;34.15;31.82;52.78;;
72736;Laerm;60856;53.238;10.448;2022-08-01T10:39:45;34.43;31.05;47.92;;
72736;Laerm;60856;53.238;10.448;2022-08-01T10:42:11;38.39;31.54;57.58;;
72736;Laerm;60856;53.238;10.448;2022-08-01T10:44:37;42.46;31.76;54.49;;
72736;Laerm;60856;53.238;10.448;2022-08-01T10:47:12;34.74;31.01;48.73;;
72736;Laerm;60856;53.238;10.448;2022-08-01T10:49:48;38.23;31.15;52.47;;
72736;Laerm;60856;53.238;10.448;2022-08-01T10:52:17;36.40;31.15;50.60;;
72736;Laerm;60856;53.238;10.448;2022-08-01T10:54:43;35.17;31.53;48.34;;
72736;Laerm;60856;53.238;10.448;2022-08-01T10:57:08;36.43;31.53;52.05;;
72736;Laerm;60856;53.238;10.448;2022-08-01T10:59:35;35.55;31.51;51.54;;
72736;Laerm;60856;53.238;10.448;2022-08-01T11:02:05;41.84;30.85;55.78;;
72736;Laerm;60856;53.238;10.448;2022-08-01T11:04:39;35.18;30.48;57.66;;
72736;Laerm;60856;53.238;10.448;2022-08-01T11:07:07;37.57;30.71;49.99;;
72736;Laerm;60856;53.238;10.448;2022-08-01T11:09:40;34.13;31.26;43.34;;
72736;Laerm;60856;53.238;10.448;2022-08-01T11:14:33;38.45;31.37;56.93;;
72736;Laerm;60856;53.238;10.448;2022-08-01T11:22:27;35.37;30.97;50.34;;
72736;Laerm;60856;53.238;10.448;2022-08-01T11:24:55;34.28;31.84;51.60;;
72736;Laerm;60856;53.238;10.448;2022-08-01T11:32:33;35.12;31.86;47.49;;
72736;Laerm;60856;53.238;10.448;2022-08-01T11:34:59;37.51;31.77;48.70;;
72736;Laerm;60856;53.238;10.448;2022-08-01T11:37:25;38.32;32.05;53.47;;
72736;Laerm;60856;53.238;10.448;2022-08-01T11:42:34;38.73;31.79;60.36;;
72736;Laerm;60856;53.238;10.448;2022-08-01T11:45:00;34.12;31.58;50.03;;
72736;Laerm;60856;53.238;10.448;2022-08-01T11:52:57;33.61;31.05;44.75;;
72736;Laerm;60856;53.238;10.448;2022-08-01T11:55:23;33.92;31.74;41.80;;
72736;Laerm;60856;53.238;10.448;2022-08-01T11:57:49;33.62;31.30;41.36;;
72736;Laerm;60856;53.238;10.448;2022-08-01T12:03:08;34.47;31.14;46.43;;
72736;Laerm;60856;53.238;10.448;2022-08-01T12:05:34;37.56;32.78;49.68;;
72736;Laerm;60856;53.238;10.448;2022-08-01T12:08:02;36.26;31.74;57.70;;
72736;Laerm;60856;53.238;10.448;2022-08-01T12:10:29;38.79;32.27;52.00;;
72736;Laerm;60856;53.238;10.448;2022-08-01T12:13:00;41.41;32.29;55.65;;
72736;Laerm;60856;53.238;10.448;2022-08-01T12:15:31;35.43;31.93;52.47;;
72736;Laerm;60856;53.238;10.448;2022-08-01T12:17:58;38.12;31.21;50.50;;
72736;Laerm;60856;53.238;10.448;2022-08-01T12:20:24;38.60;32.18;55.87;;
72736;Laerm;60856;53.238;10.448;2022-08-01T12:22:53;40.31;32.39;52.81;;
72736;Laerm;60856;53.238;10.448;2022-08-01T12:25:19;35.91;31.99;58.91;;
72736;Laerm;60856;53.238;10.448;2022-08-01T12:27:44;43.11;32.00;53.87;;
72736;Laerm;60856;53.238;10.448;2022-08-01T12:32:55;40.95;32.01;55.08;;
72736;Laerm;60856;53.238;10.448;2022-08-01T12:35:22;37.08;31.70;50.94;;
72736;Laerm;60856;53.238;10.448;2022-08-01T12:37:49;35.24;31.95;44.38;;
72736;Laerm;60856;53.238;10.448;2022-08-01T12:42:43;40.70;31.92;59.80;;
72736;Laerm;60856;53.238;10.448;2022-08-01T12:45:09;43.26;32.34;56.31;;
72736;Laerm;60856;53.238;10.448;2022-08-01T12:47:39;39.09;31.93;62.55;;
72736;Laerm;60856;53.238;10.448;2022-08-01T12:50:08;33.78;31.02;44.57;;
72736;Laerm;60856;53.238;10.448;2022-08-01T12:52:36;36.32;31.24;54.75;;
72736;Laerm;60856;53.238;10.448;2022-08-01T12:55:20;40.26;31.76;51.99;;
72736;Laerm;60856;53.238;10.448;2022-08-01T12:57:48;39.30;31.54;54.90;;
72736;Laerm;60856;53.238;10.448;2022-08-01T13:02:43;43.89;31.35;59.27;;
72736;Laerm;60856;53.238;10.448;2022-08-01T13:05:09;38.34;31.97;59.88;;
72736;Laerm;60856;53.238;10.448;2022-08-01T13:07:35;42.07;31.99;59.55;;
72736;Laerm;60856;53.238;10.448;2022-08-01T13:10:01;38.48;30.85;55.22;;
72736;Laerm;60856;53.238;10.448;2022-08-01T13:12:26;41.27;31.02;66.12;;
72736;Laerm;60856;53.238;10.448;2022-08-01T13:14:52;38.98;31.67;69.18;;
72736;Laerm;60856;53.238;10.448;2022-08-01T13:17:30;36.27;32.51;62.88;;
72736;Laerm;60856;53.238;10.448;2022-08-01T13:19:56;46.70;25.51;58.69;;
72736;Laerm;60856;53.238;10.448;2022-08-01T13:22:21;42.52;32.51;56.19;;
72736;Laerm;60856;53.238;10.448;2022-08-01T13:25:08;47.03;31.48;58.55;;
72736;Laerm;60856;53.238;10.448;2022-08-01T13:27:33;49.21;33.23;56.14;;
72736;Laerm;60856;53.238;10.448;2022-08-01T13:30:09;49.95;33.41;56.65;;
72736;Laerm;60856;53.238;10.448;2022-08-01T13:32:34;48.66;32.83;68.92;;
72736;Laerm;60856;53.238;10.448;2022-08-01T13:35:00;49.74;32.54;58.18;;
72736;Laerm;60856;53.238;10.448;2022-08-01T13:37:26;41.43;31.61;56.99;;
72736;Laerm;60856;53.238;10.448;2022-08-01T13:39:51;49.72;32.62;59.20;;
72736;Laerm;60856;53.238;10.448;2022-08-01T13:42:16;49.77;31.68;57.16;;
72736;Laerm;60856;53.238;10.448;2022-08-01T13:44:42;50.54;34.13;62.06;;
72736;Laerm;60856;53.238;10.448;2022-08-01T13:47:07;40.63;33.53;58.80;;
72736;Laerm;60856;53.238;10.448;2022-08-01T13:49:33;39.14;31.43;57.95;;
72736;Laerm;60856;53.238;10.448;2022-08-01T13:51:59;42.89;31.50;60.27;;
72736;Laerm;60856;53.238;10.448;2022-08-01T13:54:24;37.10;32.71;53.32;;
72736;Laerm;60856;53.238;10.448;2022-08-01T13:56:51;48.54;33.33;58.09;;
72736;Laerm;60856;53.238;10.448;2022-08-01T13:59:16;51.84;36.66;55.55;;
72736;Laerm;60856;53.238;10.448;2022-08-01T14:01:41;49.76;31.85;56.99;;
72736;Laerm;60856;53.238;10.448;2022-08-01T14:04:06;46.80;33.62;55.93;;
72736;Laerm;60856;53.238;10.448;2022-08-01T14:06:32;47.73;32.65;55.44;;
72736;Laerm;60856;53.238;10.448;2022-08-01T14:08:57;49.00;33.01;55.95;;
72736;Laerm;60856;53.238;10.448;2022-08-01T14:11:22;48.62;32.64;58.40;;
72736;Laerm;60856;53.238;10.448;2022-08-01T14:13:48;49.19;33.02;57.38;;
72736;Laerm;60856;53.238;10.448;2022-08-01T14:16:13;50.55;31.90;69.75;;
72736;Laerm;60856;53.238;10.448;2022-08-01T14:18:39;49.69;31.59;56.10;;
72736;Laerm;60856;53.238;10.448;2022-08-01T14:21:05;48.10;32.16;54.94;;
72736;Laerm;60856;53.238;10.448;2022-08-01T14:23:31;49.20;31.96;53.60;;